This is the latest recevied weather packets stored in our database for station/object AA6HF. If no packets are shown the sender has not sent any weather packets the latest 10 day(s).
| Time | Temp. | Humidity | Pressure | Rain* | Wind** | Luminosity | Snow |
|---|---|---|---|---|---|---|---|
| 1777938630 | 25° C | 26% | 1008.2 hPa | 0 mm | - | - | - |
| 1777938331 | 24.44° C | 27% | 1008 hPa | 0 mm | - | - | - |
| 1777938030 | 25° C | 26% | 1008 hPa | 0 mm | - | - | - |
| 1777937730 | 25° C | 26% | 1008 hPa | 0 mm | - | - | - |
| 1777937431 | 25° C | 26% | 1008.1 hPa | 0 mm | - | - | - |
| 1777937131 | 26.11° C | 24% | 1008 hPa | 0 mm | - | - | - |
| 1777936831 | 26.11° C | 24% | 1007.8 hPa | 0 mm | - | - | - |
| 1777936531 | 26.67° C | 24% | 1008 hPa | 0 mm | - | - | - |
| 1777936231 | 26.67° C | 23% | 1008 hPa | 0 mm | - | - | - |
| 1777935931 | 26.67° C | 23% | 1008.1 hPa | 0 mm | - | - | - |
| 1777935631 | 26.67° C | 23% | 1008 hPa | 0 mm | - | - | - |
| 1777935331 | 26.67° C | 23% | 1008.1 hPa | 0 mm | - | - | - |
| 1777935031 | 26.67° C | 22% | 1008.1 hPa | 0 mm | - | - | - |
| 1777934731 | 27.22° C | 22% | 1008.2 hPa | 0 mm | - | - | - |
| 1777934431 | 27.22° C | 22% | 1008.2 hPa | 0 mm | - | - | - |
| 1777934131 | 27.22° C | 22% | 1008.3 hPa | 0 mm | - | - | - |
| 1777933831 | 27.22° C | 23% | 1008.4 hPa | 0 mm | - | - | - |
| 1777933531 | 27.22° C | 24% | 1008.2 hPa | 0 mm | - | - | - |
| 1777933231 | 26.67° C | 24% | 1008.4 hPa | 0 mm | - | - | - |
| 1777932931 | 26.67° C | 24% | 1008.5 hPa | 0 mm | - | - | - |
| 1777932631 | 26.67° C | 25% | 1008.6 hPa | 0 mm | - | - | - |
| 1777932331 | 26.67° C | 22% | 1008.7 hPa | 0 mm | - | - | - |
| 1777932031 | 26.11° C | 23% | 1008.7 hPa | 0 mm | - | - | - |
| 1777931731 | 26.11° C | 24% | 1008.8 hPa | 0 mm | - | - | - |
| 1777931431 | 25.56° C | 26% | 1008.9 hPa | 0 mm | - | - | - |
* Rain latest hour (hover to see other rain measurements)
** Current wind speed in m/s (hover to see current wind gust speed)